sensor_id;sensor_type;location;lat;lon;timestamp;pressure;altitude;pressure_sealevel;temperature;humidity
67931;BME280;63902;52.000;5.954;2023-05-19T00:00:30;102326.38;;;8.06;71.15
67931;BME280;63902;52.000;5.954;2023-05-19T00:01:31;102326.38;;;8.06;70.56
67931;BME280;63902;52.000;5.954;2023-05-19T00:02:32;102325.50;;;8.06;71.39
67931;BME280;63902;52.000;5.954;2023-05-19T00:03:33;102315.00;;;7.97;70.68
67931;BME280;63902;52.000;5.954;2023-05-19T00:04:35;102327.28;;;8.01;70.90
67931;BME280;63902;52.000;5.954;2023-05-19T00:05:36;102329.09;;;7.99;71.26
67931;BME280;63902;52.000;5.954;2023-05-19T00:06:38;102315.91;;;7.94;71.67
67931;BME280;63902;52.000;5.954;2023-05-19T00:07:40;102320.28;;;7.97;71.64
67931;BME280;63902;52.000;5.954;2023-05-19T00:08:42;102321.19;;;7.94;71.31
67931;BME280;63902;52.000;5.954;2023-05-19T00:09:43;102327.34;;;7.95;71.09
67931;BME280;63902;52.000;5.954;2023-05-19T00:10:44;102320.28;;;7.95;71.13
67931;BME280;63902;52.000;5.954;2023-05-19T00:11:45;102319.44;;;7.93;71.15
67931;BME280;63902;52.000;5.954;2023-05-19T00:12:46;102311.56;;;7.82;71.53
67931;BME280;63902;52.000;5.954;2023-05-19T00:13:49;102326.50;;;7.91;72.08
67931;BME280;63902;52.000;5.954;2023-05-19T00:14:50;102320.34;;;7.91;72.33
67931;BME280;63902;52.000;5.954;2023-05-19T00:15:51;102325.63;;;7.91;71.72
67931;BME280;63902;52.000;5.954;2023-05-19T00:16:52;102321.22;;;7.87;71.97
67931;BME280;63902;52.000;5.954;2023-05-19T00:17:52;102326.47;;;7.90;71.85
67931;BME280;63902;52.000;5.954;2023-05-19T00:18:53;102326.50;;;7.88;71.65
67931;BME280;63902;52.000;5.954;2023-05-19T00:19:55;102320.34;;;7.86;71.97
67931;BME280;63902;52.000;5.954;2023-05-19T00:20:55;102335.31;;;7.85;72.05
67931;BME280;63902;52.000;5.954;2023-05-19T00:21:55;102325.66;;;7.83;72.43
67931;BME280;63902;52.000;5.954;2023-05-19T00:22:56;102330.06;;;7.82;72.00
67931;BME280;63902;52.000;5.954;2023-05-19T00:23:57;102327.41;;;7.81;72.54
67931;BME280;63902;52.000;5.954;2023-05-19T00:24:57;102328.31;;;7.80;72.22
67931;BME280;63902;52.000;5.954;2023-05-19T00:25:58;102325.66;;;7.78;72.93
67931;BME280;63902;52.000;5.954;2023-05-19T00:26:58;102323.03;;;7.75;72.49
67931;BME280;63902;52.000;5.954;2023-05-19T00:27:59;102313.41;;;7.68;72.64
67931;BME280;63902;52.000;5.954;2023-05-19T00:28:59;102316.91;;;7.73;72.31
67931;BME280;63902;52.000;5.954;2023-05-19T00:30:00;102317.78;;;7.72;72.72
67931;BME280;63902;52.000;5.954;2023-05-19T00:31:00;102320.44;;;7.69;72.70
67931;BME280;63902;52.000;5.954;2023-05-19T00:32:01;102319.56;;;7.69;72.76
67931;BME280;63902;52.000;5.954;2023-05-19T00:33:02;102318.69;;;7.67;73.33
67931;BME280;63902;52.000;5.954;2023-05-19T00:34:02;102309.91;;;7.68;73.45
67931;BME280;63902;52.000;5.954;2023-05-19T00:35:05;102316.94;;;7.64;73.40
67931;BME280;63902;52.000;5.954;2023-05-19T00:36:08;102311.66;;;7.64;74.53
67931;BME280;63902;52.000;5.954;2023-05-19T00:37:08;102318.72;;;7.63;73.60
67931;BME280;63902;52.000;5.954;2023-05-19T00:38:09;102308.16;;;7.62;73.73
67931;BME280;63902;52.000;5.954;2023-05-19T00:39:09;102310.81;;;7.60;74.63
67931;BME280;63902;52.000;5.954;2023-05-19T00:40:10;102311.69;;;7.61;74.11
67931;BME280;63902;52.000;5.954;2023-05-19T00:41:10;102308.19;;;7.59;73.97
67931;BME280;63902;52.000;5.954;2023-05-19T00:42:11;102313.44;;;7.62;74.12
67931;BME280;63902;52.000;5.954;2023-05-19T00:43:11;102308.16;;;7.62;74.05
67931;BME280;63902;52.000;5.954;2023-05-19T00:44:12;102306.41;;;7.61;73.64
67931;BME280;63902;52.000;5.954;2023-05-19T00:45:12;102295.00;;;7.54;73.68
67931;BME280;63902;52.000;5.954;2023-05-19T00:46:13;102303.78;;;7.58;74.35
67931;BME280;63902;52.000;5.954;2023-05-19T00:47:13;102295.88;;;7.55;73.69
67931;BME280;63902;52.000;5.954;2023-05-19T00:48:14;102301.16;;;7.55;74.00
67931;BME280;63902;52.000;5.954;2023-05-19T00:49:14;102300.28;;;7.54;74.12
67931;BME280;63902;52.000;5.954;2023-05-19T00:50:16;102306.44;;;7.55;73.98
67931;BME280;63902;52.000;5.954;2023-05-19T00:51:17;102295.84;;;7.53;74.12
67931;BME280;63902;52.000;5.954;2023-05-19T00:52:17;102292.34;;;7.53;74.02
67931;BME280;63902;52.000;5.954;2023-05-19T00:53:19;102295.88;;;7.52;73.72
67931;BME280;63902;52.000;5.954;2023-05-19T00:54:19;102295.88;;;7.52;73.94
67931;BME280;63902;52.000;5.954;2023-05-19T00:55:21;102302.06;;;7.49;74.14
67931;BME280;63902;52.000;5.954;2023-05-19T00:56:22;102301.16;;;7.50;73.96
67931;BME280;63902;52.000;5.954;2023-05-19T00:57:22;102302.06;;;7.49;74.69
67931;BME280;63902;52.000;5.954;2023-05-19T00:58:23;102296.78;;;7.49;74.47
67931;BME280;63902;52.000;5.954;2023-05-19T00:59:24;102300.31;;;7.47;74.54
67931;BME280;63902;52.000;5.954;2023-05-19T01:00:25;102299.44;;;7.46;74.28
67931;BME280;63902;52.000;5.954;2023-05-19T01:01:25;102298.56;;;7.43;76.55
67931;BME280;63902;52.000;5.954;2023-05-19T01:02:26;102301.19;;;7.46;75.91
67931;BME280;63902;52.000;5.954;2023-05-19T01:03:27;102302.06;;;7.45;75.46
67931;BME280;63902;52.000;5.954;2023-05-19T01:04:27;102299.44;;;7.43;75.02
67931;BME280;63902;52.000;5.954;2023-05-19T01:05:29;102302.97;;;7.44;75.56
67931;BME280;63902;52.000;5.954;2023-05-19T01:06:30;102309.97;;;7.45;75.84
67931;BME280;63902;52.000;5.954;2023-05-19T01:07:31;102311.75;;;7.46;75.67
67931;BME280;63902;52.000;5.954;2023-05-19T01:08:32;102287.16;;;7.36;75.66
67931;BME280;63902;52.000;5.954;2023-05-19T01:09:32;102303.84;;;7.43;75.42
67931;BME280;63902;52.000;5.954;2023-05-19T01:10:33;102297.69;;;7.40;75.52
67931;BME280;63902;52.000;5.954;2023-05-19T01:11:34;102301.22;;;7.39;75.55
67931;BME280;63902;52.000;5.954;2023-05-19T01:12:34;102281.94;;;7.24;75.54
67931;BME280;63902;52.000;5.954;2023-05-19T01:13:35;102287.19;;;7.28;77.46
67931;BME280;63902;52.000;5.954;2023-05-19T01:14:36;102306.50;;;7.36;76.28
67931;BME280;63902;52.000;5.954;2023-05-19T01:15:40;102308.25;;;7.36;75.89
67931;BME280;63902;52.000;5.954;2023-05-19T01:16:53;102308.28;;;7.33;76.98
67931;BME280;63902;52.000;5.954;2023-05-19T01:18:00;102297.72;;;7.33;77.53
67931;BME280;63902;52.000;5.954;2023-05-19T01:19:14;102301.25;;;7.30;76.69
67931;BME280;63902;52.000;5.954;2023-05-19T01:20:26;102298.59;;;7.30;76.28
67931;BME280;63902;52.000;5.954;2023-05-19T01:22:01;102297.75;;;7.28;77.49
67931;BME280;63902;52.000;5.954;2023-05-19T01:23:19;102293.34;;;7.24;77.17
67931;BME280;63902;52.000;5.954;2023-05-19T01:24:37;102301.25;;;7.27;77.02
67931;BME280;63902;52.000;5.954;2023-05-19T01:25:59;102303.03;;;7.25;76.49
67931;BME280;63902;52.000;5.954;2023-05-19T01:27:22;102299.50;;;7.26;77.42
67931;BME280;63902;52.000;5.954;2023-05-19T01:28:52;102300.38;;;7.27;77.18
67931;BME280;63902;52.000;5.954;2023-05-19T01:30:29;102298.66;;;7.26;79.19
67931;BME280;63902;52.000;5.954;2023-05-19T01:31:35;102307.44;;;7.26;77.36
67931;BME280;63902;52.000;5.954;2023-05-19T01:32:37;102297.75;;;7.25;76.72
67931;BME280;63902;52.000;5.954;2023-05-19T01:33:40;102299.53;;;7.23;76.82
67931;BME280;63902;52.000;5.954;2023-05-19T01:34:43;102300.41;;;7.21;76.38
67931;BME280;63902;52.000;5.954;2023-05-19T01:35:46;102306.56;;;7.18;76.38
67931;BME280;63902;52.000;5.954;2023-05-19T01:36:47;102299.53;;;7.14;76.61
67931;BME280;63902;52.000;5.954;2023-05-19T01:37:54;102302.19;;;7.17;76.69
67931;BME280;63902;52.000;5.954;2023-05-19T01:38:57;102296.91;;;7.14;76.87
67931;BME280;63902;52.000;5.954;2023-05-19T01:39:59;102303.06;;;7.13;76.68
67931;BME280;63902;52.000;5.954;2023-05-19T01:41:02;102303.09;;;7.11;76.69
67931;BME280;63902;52.000;5.954;2023-05-19T01:42:03;102302.19;;;7.11;76.96
67931;BME280;63902;52.000;5.954;2023-05-19T01:43:05;102299.53;;;7.11;76.78
67931;BME280;63902;52.000;5.954;2023-05-19T01:44:07;102300.47;;;7.11;77.31
67931;BME280;63902;52.000;5.954;2023-05-19T01:45:08;102302.19;;;7.11;77.87
67931;BME280;63902;52.000;5.954;2023-05-19T01:46:10;102302.19;;;7.11;77.14
67931;BME280;63902;52.000;5.954;2023-05-19T01:47:11;102296.94;;;7.09;76.91
67931;BME280;63902;52.000;5.954;2023-05-19T01:48:13;102302.22;;;7.09;76.84
67931;BME280;63902;52.000;5.954;2023-05-19T01:49:14;102299.53;;;7.11;77.04
67931;BME280;63902;52.000;5.954;2023-05-19T01:50:14;102293.41;;;7.07;79.68
67931;BME280;63902;52.000;5.954;2023-05-19T01:51:15;102303.06;;;7.08;78.21
67931;BME280;63902;52.000;5.954;2023-05-19T01:52:15;102306.63;;;7.06;77.65
67931;BME280;63902;52.000;5.954;2023-05-19T01:53:16;102301.31;;;7.03;77.88
67931;BME280;63902;52.000;5.954;2023-05-19T01:54:16;102298.69;;;7.04;77.72
67931;BME280;63902;52.000;5.954;2023-05-19T01:55:17;102295.19;;;6.99;77.72
67931;BME280;63902;52.000;5.954;2023-05-19T01:56:26;102303.97;;;7.00;77.89
67931;BME280;63902;52.000;5.954;2023-05-19T01:57:38;102292.56;;;6.94;77.76
67931;BME280;63902;52.000;5.954;2023-05-19T01:58:44;102296.06;;;6.97;77.75
67931;BME280;63902;52.000;5.954;2023-05-19T01:59:51;102295.19;;;6.96;78.31
67931;BME280;63902;52.000;5.954;2023-05-19T02:00:58;102297.81;;;6.94;77.83
67931;BME280;63902;52.000;5.954;2023-05-19T02:02:08;102296.97;;;6.94;77.70
67931;BME280;63902;52.000;5.954;2023-05-19T02:03:20;102299.63;;;6.92;78.07
67931;BME280;63902;52.000;5.954;2023-05-19T02:04:32;102294.34;;;6.92;78.97
67931;BME280;63902;52.000;5.954;2023-05-19T02:05:40;102292.56;;;6.94;78.80
67931;BME280;63902;52.000;5.954;2023-05-19T02:06:48;102285.53;;;6.93;77.92
67931;BME280;63902;52.000;5.954;2023-05-19T02:07:57;102286.41;;;6.94;77.94
67931;BME280;63902;52.000;5.954;2023-05-19T02:09:03;102289.06;;;6.92;77.76
67931;BME280;63902;52.000;5.954;2023-05-19T02:10:10;102288.19;;;6.92;77.77
67931;BME280;63902;52.000;5.954;2023-05-19T02:11:13;102291.69;;;6.91;78.79
67931;BME280;63902;52.000;5.954;2023-05-19T02:12:23;102287.28;;;6.88;78.64
67931;BME280;63902;52.000;5.954;2023-05-19T02:13:30;102286.44;;;6.88;78.52
67931;BME280;63902;52.000;5.954;2023-05-19T02:14:34;102282.03;;;6.88;78.56
67931;BME280;63902;52.000;5.954;2023-05-19T02:15:39;102281.16;;;6.86;78.56
67931;BME280;63902;52.000;5.954;2023-05-19T02:16:43;102287.31;;;6.85;78.76
67931;BME280;63902;52.000;5.954;2023-05-19T02:17:47;102285.56;;;6.83;78.37
67931;BME280;63902;52.000;5.954;2023-05-19T02:18:49;102277.66;;;6.81;78.41
67931;BME280;63902;52.000;5.954;2023-05-19T02:19:50;102282.06;;;6.81;78.48
67931;BME280;63902;52.000;5.954;2023-05-19T02:20:50;102287.34;;;6.81;78.48
67931;BME280;63902;52.000;5.954;2023-05-19T02:21:51;102283.78;;;6.80;78.77
67931;BME280;63902;52.000;5.954;2023-05-19T02:22:52;102282.06;;;6.79;78.47
67931;BME280;63902;52.000;5.954;2023-05-19T02:23:52;102273.28;;;6.76;78.59
67931;BME280;63902;52.000;5.954;2023-05-19T02:24:52;102282.94;;;6.77;78.66
67931;BME280;63902;52.000;5.954;2023-05-19T02:25:53;102274.16;;;6.73;78.85
67931;BME280;63902;52.000;5.954;2023-05-19T02:26:53;102276.78;;;6.76;78.96
67931;BME280;63902;52.000;5.954;2023-05-19T02:27:54;102282.06;;;6.76;78.95
67931;BME280;63902;52.000;5.954;2023-05-19T02:28:54;102280.31;;;6.73;79.06
67931;BME280;63902;52.000;5.954;2023-05-19T02:29:55;102266.28;;;6.67;79.49
67931;BME280;63902;52.000;5.954;2023-05-19T02:30:55;102283.81;;;6.74;79.30
67931;BME280;63902;52.000;5.954;2023-05-19T02:31:56;102261.00;;;6.64;80.20
67931;BME280;63902;52.000;5.954;2023-05-19T02:32:58;102282.94;;;6.72;80.02
67931;BME280;63902;52.000;5.954;2023-05-19T02:33:58;102271.53;;;6.67;79.70
67931;BME280;63902;52.000;5.954;2023-05-19T02:34:59;102279.41;;;6.71;79.93
67931;BME280;63902;52.000;5.954;2023-05-19T02:35:59;102289.09;;;6.71;79.62
67931;BME280;63902;52.000;5.954;2023-05-19T02:37:00;102285.56;;;6.69;79.72
67931;BME280;63902;52.000;5.954;2023-05-19T02:38:00;102275.06;;;6.61;79.72
67931;BME280;63902;52.000;5.954;2023-05-19T02:39:01;102274.16;;;6.62;79.83
67931;BME280;63902;52.000;5.954;2023-05-19T02:40:01;102282.09;;;6.64;80.35
67931;BME280;63902;52.000;5.954;2023-05-19T02:41:02;102276.78;;;6.61;80.00
67931;BME280;63902;52.000;5.954;2023-05-19T02:42:02;102275.06;;;6.60;79.91
67931;BME280;63902;52.000;5.954;2023-05-19T02:43:03;102276.81;;;6.59;79.85
67931;BME280;63902;52.000;5.954;2023-05-19T02:44:04;102274.16;;;6.58;80.01
67931;BME280;63902;52.000;5.954;2023-05-19T02:45:05;102275.94;;;6.57;80.59
67931;BME280;63902;52.000;5.954;2023-05-19T02:46:05;102256.63;;;6.46;80.45
67931;BME280;63902;52.000;5.954;2023-05-19T02:47:06;102275.03;;;6.55;80.68
67931;BME280;63902;52.000;5.954;2023-05-19T02:48:08;102273.31;;;6.56;80.42
67931;BME280;63902;52.000;5.954;2023-05-19T02:49:08;102268.91;;;6.55;80.93
67931;BME280;63902;52.000;5.954;2023-05-19T02:50:09;102261.00;;;6.48;80.55
67931;BME280;63902;52.000;5.954;2023-05-19T02:51:09;102274.16;;;6.55;80.47
67931;BME280;63902;52.000;5.954;2023-05-19T02:52:10;102270.69;;;6.56;80.70
67931;BME280;63902;52.000;5.954;2023-05-19T02:53:10;102264.53;;;6.54;81.35
67931;BME280;63902;52.000;5.954;2023-05-19T02:54:11;102264.53;;;6.54;81.31
67931;BME280;63902;52.000;5.954;2023-05-19T02:55:11;102271.53;;;6.55;81.02
67931;BME280;63902;52.000;5.954;2023-05-19T02:56:12;102266.25;;;6.55;81.80
67931;BME280;63902;52.000;5.954;2023-05-19T02:57:12;102267.16;;;6.54;81.53
67931;BME280;63902;52.000;5.954;2023-05-19T02:58:13;102263.66;;;6.53;81.38
67931;BME280;63902;52.000;5.954;2023-05-19T02:59:13;102239.94;;;6.39;81.45
67931;BME280;63902;52.000;5.954;2023-05-19T03:00:14;102260.13;;;6.53;81.19
67931;BME280;63902;52.000;5.954;2023-05-19T03:01:15;102258.38;;;6.52;81.27
67931;BME280;63902;52.000;5.954;2023-05-19T03:02:15;102262.75;;;6.49;81.46
67931;BME280;63902;52.000;5.954;2023-05-19T03:03:17;102261.88;;;6.49;81.37
67931;BME280;63902;52.000;5.954;2023-05-19T03:04:18;102263.63;;;6.48;81.27
67931;BME280;63902;52.000;5.954;2023-05-19T03:05:18;102268.91;;;6.48;81.33
67931;BME280;63902;52.000;5.954;2023-05-19T03:06:19;102252.25;;;6.42;81.43
67931;BME280;63902;52.000;5.954;2023-05-19T03:07:19;102239.94;;;6.36;81.66
67931;BME280;63902;52.000;5.954;2023-05-19T03:08:19;102268.91;;;6.48;82.38
67931;BME280;63902;52.000;5.954;2023-05-19T03:09:20;102258.38;;;6.47;81.53
67931;BME280;63902;52.000;5.954;2023-05-19T03:10:20;102254.84;;;6.46;81.73
67931;BME280;63902;52.000;5.954;2023-05-19T03:11:21;102261.00;;;6.48;84.21
67931;BME280;63902;52.000;5.954;2023-05-19T03:12:21;102261.00;;;6.48;83.34
67931;BME280;63902;52.000;5.954;2023-05-19T03:13:22;102247.84;;;6.42;83.05
67931;BME280;63902;52.000;5.954;2023-05-19T03:14:22;102261.00;;;6.48;82.75
67931;BME280;63902;52.000;5.954;2023-05-19T03:15:23;102268.94;;;6.47;82.30
67931;BME280;63902;52.000;5.954;2023-05-19T03:16:23;102261.00;;;6.45;82.40
67931;BME280;63902;52.000;5.954;2023-05-19T03:17:24;102261.91;;;6.44;82.51
67931;BME280;63902;52.000;5.954;2023-05-19T03:18:26;102265.41;;;6.43;82.44
67931;BME280;63902;52.000;5.954;2023-05-19T03:19:26;102261.00;;;6.41;83.18
67931;BME280;63902;52.000;5.954;2023-05-19T03:20:27;102256.59;;;6.38;82.55
67931;BME280;63902;52.000;5.954;2023-05-19T03:21:27;102269.78;;;6.43;82.31
67931;BME280;63902;52.000;5.954;2023-05-19T03:22:28;102265.41;;;6.42;82.52
67931;BME280;63902;52.000;5.954;2023-05-19T03:23:28;102272.44;;;6.41;82.49
67931;BME280;63902;52.000;5.954;2023-05-19T03:24:29;102268.91;;;6.41;82.33
67931;BME280;63902;52.000;5.954;2023-05-19T03:25:29;102264.53;;;6.41;82.53
67931;BME280;63902;52.000;5.954;2023-05-19T03:26:30;102256.63;;;6.35;82.46
67931;BME280;63902;52.000;5.954;2023-05-19T03:27:30;102269.81;;;6.44;83.93
67931;BME280;63902;52.000;5.954;2023-05-19T03:28:30;102268.91;;;6.38;82.97
67931;BME280;63902;52.000;5.954;2023-05-19T03:29:31;102270.66;;;6.43;82.84
67931;BME280;63902;52.000;5.954;2023-05-19T03:30:31;102275.97;;;6.42;82.92
67931;BME280;63902;52.000;5.954;2023-05-19T03:31:32;102271.53;;;6.41;82.67
67931;BME280;63902;52.000;5.954;2023-05-19T03:32:32;102268.03;;;6.40;83.25
67931;BME280;63902;52.000;5.954;2023-05-19T03:33:34;102267.19;;;6.41;83.94
67931;BME280;63902;52.000;5.954;2023-05-19T03:34:35;102268.06;;;6.42;83.74
67931;BME280;63902;52.000;5.954;2023-05-19T03:35:35;102266.28;;;6.41;83.33
67931;BME280;63902;52.000;5.954;2023-05-19T03:36:36;102259.28;;;6.41;83.17
67931;BME280;63902;52.000;5.954;2023-05-19T03:37:36;102264.53;;;6.41;83.30
67931;BME280;63902;52.000;5.954;2023-05-19T03:38:37;102249.59;;;6.36;83.51
67931;BME280;63902;52.000;5.954;2023-05-19T03:39:37;102266.28;;;6.42;83.25
67931;BME280;63902;52.000;5.954;2023-05-19T03:40:37;102261.91;;;6.40;83.72
67931;BME280;63902;52.000;5.954;2023-05-19T03:41:38;102265.41;;;6.40;83.25
67931;BME280;63902;52.000;5.954;2023-05-19T03:42:38;102261.91;;;6.40;83.21
67931;BME280;63902;52.000;5.954;2023-05-19T03:43:39;102267.19;;;6.41;83.10
67931;BME280;63902;52.000;5.954;2023-05-19T03:44:39;102258.38;;;6.35;83.18
67931;BME280;63902;52.000;5.954;2023-05-19T03:45:40;102268.06;;;6.42;82.84
67931;BME280;63902;52.000;5.954;2023-05-19T03:46:40;102276.84;;;6.42;82.96
67931;BME280;63902;52.000;5.954;2023-05-19T03:47:41;102277.69;;;6.43;83.27
67931;BME280;63902;52.000;5.954;2023-05-19T03:48:43;102274.19;;;6.42;83.08
67931;BME280;63902;52.000;5.954;2023-05-19T03:49:43;102269.81;;;6.44;83.08
67931;BME280;63902;52.000;5.954;2023-05-19T03:50:44;102268.91;;;6.44;83.13
67931;BME280;63902;52.000;5.954;2023-05-19T03:51:44;102277.69;;;6.46;83.50
67931;BME280;63902;52.000;5.954;2023-05-19T03:52:45;102275.06;;;6.46;83.29
67931;BME280;63902;52.000;5.954;2023-05-19T03:53:45;102269.78;;;6.46;83.28
67931;BME280;63902;52.000;5.954;2023-05-19T03:54:46;102259.25;;;6.37;83.17
67931;BME280;63902;52.000;5.954;2023-05-19T03:55:46;102275.94;;;6.45;83.27
67931;BME280;63902;52.000;5.954;2023-05-19T03:56:47;102264.53;;;6.41;83.61
67931;BME280;63902;52.000;5.954;2023-05-19T03:57:47;102268.94;;;6.47;83.41
67931;BME280;63902;52.000;5.954;2023-05-19T03:58:48;102269.78;;;6.46;83.75
67931;BME280;63902;52.000;5.954;2023-05-19T03:59:48;102273.31;;;6.48;83.52
67931;BME280;63902;52.000;5.954;2023-05-19T04:00:48;102273.28;;;6.49;83.56
67931;BME280;63902;52.000;5.954;2023-05-19T04:01:49;102277.69;;;6.49;83.79
67931;BME280;63902;52.000;5.954;2023-05-19T04:02:50;102269.81;;;6.47;84.73
67931;BME280;63902;52.000;5.954;2023-05-19T04:03:51;102268.94;;;6.50;83.95
67931;BME280;63902;52.000;5.954;2023-05-19T04:04:52;102275.94;;;6.49;83.93
67931;BME280;63902;52.000;5.954;2023-05-19T04:05:52;102268.03;;;6.43;85.07
67931;BME280;63902;52.000;5.954;2023-05-19T04:06:53;102262.78;;;6.42;84.42
67931;BME280;63902;52.000;5.954;2023-05-19T04:07:53;102282.97;;;6.50;84.89
67931;BME280;63902;52.000;5.954;2023-05-19T04:08:54;102279.44;;;6.52;84.45
67931;BME280;63902;52.000;5.954;2023-05-19T04:09:54;102281.22;;;6.53;84.03
67931;BME280;63902;52.000;5.954;2023-05-19T04:10:55;102282.09;;;6.52;83.83
67931;BME280;63902;52.000;5.954;2023-05-19T04:11:55;102282.09;;;6.52;84.36
67931;BME280;63902;52.000;5.954;2023-05-19T04:12:56;102273.31;;;6.53;84.06
67931;BME280;63902;52.000;5.954;2023-05-19T04:13:56;102277.69;;;6.49;83.73
67931;BME280;63902;52.000;5.954;2023-05-19T04:14:57;102282.97;;;6.54;83.65
67931;BME280;63902;52.000;5.954;2023-05-19T04:15:58;102289.13;;;6.56;83.87
67931;BME280;63902;52.000;5.954;2023-05-19T04:16:59;102285.59;;;6.54;83.79
67931;BME280;63902;52.000;5.954;2023-05-19T04:18:00;102288.22;;;6.55;83.97
67931;BME280;63902;52.000;5.954;2023-05-19T04:19:02;102287.38;;;6.56;84.55
67931;BME280;63902;52.000;5.954;2023-05-19T04:20:03;102292.63;;;6.56;84.28
67931;BME280;63902;52.000;5.954;2023-05-19T04:21:04;102290.88;;;6.57;84.04
67931;BME280;63902;52.000;5.954;2023-05-19T04:22:04;102289.97;;;6.58;83.96
67931;BME280;63902;52.000;5.954;2023-05-19T04:23:05;102289.97;;;6.61;84.76
67931;BME280;63902;52.000;5.954;2023-05-19T04:24:06;102289.13;;;6.62;84.39
67931;BME280;63902;52.000;5.954;2023-05-19T04:25:07;102282.97;;;6.58;84.14
67931;BME280;63902;52.000;5.954;2023-05-19T04:26:07;102290.84;;;6.63;84.25
67931;BME280;63902;52.000;5.954;2023-05-19T04:27:08;102291.72;;;6.63;83.84
67931;BME280;63902;52.000;5.954;2023-05-19T04:28:08;102278.56;;;6.60;83.68
67931;BME280;63902;52.000;5.954;2023-05-19T04:29:09;102293.50;;;6.66;83.46
67931;BME280;63902;52.000;5.954;2023-05-19T04:30:10;102281.19;;;6.66;83.33
67931;BME280;63902;52.000;5.954;2023-05-19T04:31:10;102290.84;;;6.69;83.66
67931;BME280;63902;52.000;5.954;2023-05-19T04:32:11;102287.34;;;6.70;83.52
67931;BME280;63902;52.000;5.954;2023-05-19T04:33:11;102284.69;;;6.68;83.20
67931;BME280;63902;52.000;5.954;2023-05-19T04:34:13;102279.44;;;6.68;83.29
67931;BME280;63902;52.000;5.954;2023-05-19T04:35:14;102285.59;;;6.70;83.52
67931;BME280;63902;52.000;5.954;2023-05-19T04:36:14;102289.09;;;6.72;83.54
67931;BME280;63902;52.000;5.954;2023-05-19T04:37:15;102281.19;;;6.72;83.32
67931;BME280;63902;52.000;5.954;2023-05-19T04:38:15;102279.44;;;6.73;84.10
67931;BME280;63902;52.000;5.954;2023-05-19T04:39:16;102280.31;;;6.75;84.51
67931;BME280;63902;52.000;5.954;2023-05-19T04:40:16;102283.78;;;6.80;83.91
67931;BME280;63902;52.000;5.954;2023-05-19T04:41:17;102281.16;;;6.82;83.55
67931;BME280;63902;52.000;5.954;2023-05-19T04:42:17;102283.78;;;6.83;83.31
67931;BME280;63902;52.000;5.954;2023-05-19T04:43:18;102276.78;;;6.84;83.35
67931;BME280;63902;52.000;5.954;2023-05-19T04:44:18;102271.47;;;6.85;83.43
67931;BME280;63902;52.000;5.954;2023-05-19T04:45:19;102275.91;;;6.86;83.24
67931;BME280;63902;52.000;5.954;2023-05-19T04:46:19;102277.63;;;6.90;84.50
67931;BME280;63902;52.000;5.954;2023-05-19T04:47:20;102276.75;;;6.93;84.60
67931;BME280;63902;52.000;5.954;2023-05-19T04:48:20;102267.97;;;6.92;84.10
67931;BME280;63902;52.000;5.954;2023-05-19T04:49:22;102272.34;;;6.97;83.45
67931;BME280;63902;52.000;5.954;2023-05-19T04:50:23;102274.09;;;6.98;83.41
67931;BME280;63902;52.000;5.954;2023-05-19T04:51:24;102266.19;;;6.98;82.88
67931;BME280;63902;52.000;5.954;2023-05-19T04:52:24;102271.47;;;7.01;83.74
67931;BME280;63902;52.000;5.954;2023-05-19T04:53:25;102265.28;;;7.02;83.41
67931;BME280;63902;52.000;5.954;2023-05-19T04:54:25;102267.03;;;7.03;84.71
67931;BME280;63902;52.000;5.954;2023-05-19T04:55:26;102272.31;;;7.09;83.53
67931;BME280;63902;52.000;5.954;2023-05-19T04:56:27;102263.53;;;7.04;82.96
67931;BME280;63902;52.000;5.954;2023-05-19T04:57:27;102270.53;;;7.12;83.10
67931;BME280;63902;52.000;5.954;2023-05-19T04:58:28;102271.41;;;7.13;83.03
67931;BME280;63902;52.000;5.954;2023-05-19T04:59:28;102268.75;;;7.16;82.67
67931;BME280;63902;52.000;5.954;2023-05-19T05:00:29;102269.63;;;7.16;82.30
67931;BME280;63902;52.000;5.954;2023-05-19T05:01:29;102269.63;;;7.18;82.29
67931;BME280;63902;52.000;5.954;2023-05-19T05:02:30;102257.31;;;7.18;82.47
67931;BME280;63902;52.000;5.954;2023-05-19T05:03:30;102266.06;;;7.25;82.10
67931;BME280;63902;52.000;5.954;2023-05-19T05:04:32;102270.47;;;7.26;82.05
67931;BME280;63902;52.000;5.954;2023-05-19T05:05:33;102276.63;;;7.30;82.08
67931;BME280;63902;52.000;5.954;2023-05-19T05:06:34;102268.72;;;7.28;81.86
67931;BME280;63902;52.000;5.954;2023-05-19T05:07:34;102273.97;;;7.33;82.21
67931;BME280;63902;52.000;5.954;2023-05-19T05:08:35;102276.59;;;7.37;82.05
67931;BME280;63902;52.000;5.954;2023-05-19T05:09:35;102277.47;;;7.39;81.62
67931;BME280;63902;52.000;5.954;2023-05-19T05:10:35;102267.78;;;7.38;81.36
67931;BME280;63902;52.000;5.954;2023-05-19T05:11:36;102260.72;;;7.39;81.76
67931;BME280;63902;52.000;5.954;2023-05-19T05:12:37;102270.38;;;7.48;82.19
67931;BME280;63902;52.000;5.954;2023-05-19T05:13:38;102273.03;;;7.51;81.71
67931;BME280;63902;52.000;5.954;2023-05-19T05:14:39;102268.59;;;7.53;81.40
67931;BME280;63902;52.000;5.954;2023-05-19T05:15:40;102277.38;;;7.55;81.07
67931;BME280;63902;52.000;5.954;2023-05-19T05:16:41;102277.38;;;7.55;81.17
67931;BME280;63902;52.000;5.954;2023-05-19T05:17:42;102276.50;;;7.54;81.26
67931;BME280;63902;52.000;5.954;2023-05-19T05:18:44;102256.31;;;7.46;81.18
67931;BME280;63902;52.000;5.954;2023-05-19T05:19:46;102280.03;;;7.55;81.30
67931;BME280;63902;52.000;5.954;2023-05-19T05:20:47;102274.75;;;7.55;81.34
67931;BME280;63902;52.000;5.954;2023-05-19T05:21:48;102276.50;;;7.59;82.17
67931;BME280;63902;52.000;5.954;2023-05-19T05:22:49;102279.06;;;7.67;81.62
67931;BME280;63902;52.000;5.954;2023-05-19T05:23:50;102278.19;;;7.69;81.29
67931;BME280;63902;52.000;5.954;2023-05-19T05:24:51;102277.31;;;7.69;80.97
67931;BME280;63902;52.000;5.954;2023-05-19T05:25:53;102284.34;;;7.71;81.27
67931;BME280;63902;52.000;5.954;2023-05-19T05:26:53;102282.56;;;7.75;80.81
67931;BME280;63902;52.000;5.954;2023-05-19T05:27:54;102285.16;;;7.78;80.71